createdAt,value
2023-06-11T00:01:15.684Z,100396.06
2023-06-11T00:06:21.782Z,100385.03
2023-06-11T00:11:25.184Z,100389.34
2023-06-11T00:16:34.681Z,100388.34
2023-06-11T00:21:44.966Z,100382.63
2023-06-11T00:26:48.370Z,100383.78
2023-06-11T00:31:53.057Z,100375.16
2023-06-11T00:36:56.304Z,100372.78
2023-06-11T00:42:00.958Z,100368.94
2023-06-11T00:47:05.960Z,100372.78
2023-06-11T00:52:14.939Z,100369.22
2023-06-11T00:57:19.189Z,100365.88
2023-06-11T01:02:31.884Z,100368.00
2023-06-11T01:07:37.883Z,100371.06
2023-06-11T01:12:41.101Z,100356.84
2023-06-11T01:17:50.100Z,100352.75
2023-06-11T01:23:19.089Z,100361.13
2023-06-11T01:28:25.851Z,100357.97
2023-06-11T01:33:29.065Z,100362.22
2023-06-11T01:38:36.234Z,100365.97
2023-06-11T01:49:01.956Z,100366.28
2023-06-11T01:54:05.272Z,100361.69
2023-06-11T01:59:09.878Z,100366.34
2023-06-11T02:04:12.893Z,100365.84
2023-06-11T02:09:16.285Z,100375.09
2023-06-11T02:14:20.936Z,100362.56
2023-06-11T02:19:23.889Z,100360.63
2023-06-11T02:24:27.494Z,100363.94
2023-06-11T02:29:32.091Z,100365.97
2023-06-11T02:34:35.045Z,100362.97
2023-06-11T02:39:38.238Z,100360.50
2023-06-11T02:44:42.857Z,100353.19
2023-06-11T02:49:46.339Z,100357.13
2023-06-11T02:54:49.593Z,100357.97
2023-06-11T02:59:54.164Z,100348.78
2023-06-11T03:04:57.124Z,100347.81
2023-06-11T03:10:00.394Z,100343.34
2023-06-11T03:15:05.363Z,100338.09
2023-06-11T03:20:09.588Z,100329.91
2023-06-11T03:25:13.068Z,100336.69
2023-06-11T03:30:17.936Z,100336.66
2023-06-11T03:35:20.993Z,100328.91
2023-06-11T03:40:24.385Z,100339.44
2023-06-11T03:45:29.083Z,100330.03
2023-06-11T03:50:32.156Z,100327.59
2023-06-11T03:55:35.428Z,100328.47
2023-06-11T04:00:40.116Z,100318.09
2023-06-11T04:05:43.710Z,100324.56
2023-06-11T04:10:46.988Z,100324.56
2023-06-11T04:15:51.694Z,100324.00
2023-06-11T04:20:54.693Z,100319.56
2023-06-11T04:25:58.935Z,100328.19
2023-06-11T04:31:03.710Z,100325.63
2023-06-11T04:36:09.335Z,100336.41
2023-06-11T04:41:13.238Z,100331.97
2023-06-11T04:46:18.334Z,100328.25
2023-06-11T04:51:22.060Z,100330.47
2023-06-11T04:56:25.412Z,100328.94
2023-06-11T05:01:33.882Z,100344.72
2023-06-11T05:06:37.186Z,100342.84
2023-06-11T05:11:40.917Z,100336.56
2023-06-11T05:16:46.781Z,100337.22
2023-06-11T05:21:50.121Z,100349.94
2023-06-11T05:26:57.230Z,100345.28
2023-06-11T05:32:02.037Z,100354.59
2023-06-11T05:37:05.833Z,100350.81
2023-06-11T05:42:10.251Z,100355.34
2023-06-11T05:47:14.995Z,100349.59
2023-06-11T05:52:17.987Z,100348.72
2023-06-11T05:57:22.612Z,100349.47
2023-06-11T06:02:30.754Z,100349.94
2023-06-11T06:07:35.510Z,100353.69
2023-06-11T06:12:38.986Z,100346.16
2023-06-11T06:17:43.763Z,100345.63
2023-06-11T06:22:46.817Z,100339.78
2023-06-11T06:27:50.102Z,100336.75
2023-06-11T06:32:57.736Z,100336.81
2023-06-11T06:38:02.263Z,100338.53
2023-06-11T06:43:05.704Z,100327.47
2023-06-11T06:48:10.492Z,100329.19
2023-06-11T06:53:13.858Z,100338.47
2023-06-11T06:58:17.192Z,100327.91
2023-06-11T07:03:22.584Z,100329.63
2023-06-11T07:08:25.894Z,100335.69
2023-06-11T07:13:29.216Z,100335.28
2023-06-11T07:18:34.267Z,100343.03
2023-06-11T07:23:37.552Z,100341.75
2023-06-11T07:28:42.072Z,100353.31
2023-06-11T07:33:46.795Z,100350.81
2023-06-11T07:38:50.075Z,100345.94
2023-06-11T07:49:15.310Z,100353.72
2023-06-11T07:54:18.486Z,100343.44
2023-06-11T07:59:22.722Z,100346.44
2023-06-11T08:04:27.475Z,100352.84
2023-06-11T08:09:31.152Z,100348.66
2023-06-11T08:14:34.697Z,100352.91
2023-06-11T08:19:39.356Z,100344.06
2023-06-11T08:24:42.529Z,100338.69
2023-06-11T08:29:45.689Z,100340.97
2023-06-11T08:34:51.037Z,100343.38
2023-06-11T08:39:54.313Z,100334.66
2023-06-11T08:44:57.568Z,100336.56
2023-06-11T08:50:03.747Z,100334.47
2023-06-11T08:55:07.803Z,100340.63
2023-06-11T09:00:13.930Z,100346.78
2023-06-11T09:05:18.917Z,100340.28
2023-06-11T09:10:22.656Z,100342.38
2023-06-11T09:15:27.092Z,100332.34
2023-06-11T09:20:33.799Z,100332.59
2023-06-11T09:25:40.321Z,100327.44
2023-06-11T09:30:43.616Z,100326.06
2023-06-11T09:35:48.521Z,100321.53
2023-06-11T09:40:52.960Z,100329.44
2023-06-11T09:45:57.290Z,100323.84
2023-06-11T09:51:04.106Z,100317.91
2023-06-11T09:56:11.824Z,100328.47
2023-06-11T10:01:15.786Z,100316.69
2023-06-11T10:06:26.881Z,100313.56
2023-06-11T10:11:39.780Z,100319.66
2023-06-11T10:16:49.807Z,100317.50
2023-06-11T10:21:56.889Z,100318.53
2023-06-11T10:32:28.967Z,100313.00
2023-06-11T10:37:36.750Z,100319.00
2023-06-11T10:42:41.485Z,100321.16
2023-06-11T10:47:46.104Z,100319.72
2023-06-11T10:52:52.732Z,100324.59
2023-06-11T10:57:56.537Z,100329.72
2023-06-11T11:08:25.798Z,100322.28
2023-06-11T11:13:31.247Z,100319.88
2023-06-11T11:18:36.112Z,100310.19
2023-06-11T11:23:40.962Z,100306.50
2023-06-11T11:28:44.302Z,100295.88
2023-06-11T11:33:48.137Z,100308.66
2023-06-11T11:38:52.830Z,100313.53
2023-06-11T11:43:56.099Z,100305.03
2023-06-11T11:48:59.390Z,100306.53
2023-06-11T11:54:04.666Z,100299.63
2023-06-11T11:59:18.052Z,100302.19
2023-06-11T12:04:21.363Z,100306.47
2023-06-11T12:09:26.278Z,100303.72
2023-06-11T12:14:29.571Z,100308.88
2023-06-11T12:19:34.399Z,100312.84
2023-06-11T12:24:39.221Z,100306.81
2023-06-11T12:29:42.774Z,100311.06
2023-06-11T12:34:46.053Z,100314.19
2023-06-11T12:39:51.170Z,100303.13
2023-06-11T12:44:55.871Z,100304.75
2023-06-11T12:49:59.079Z,100299.44
2023-06-11T12:55:03.747Z,100294.06
2023-06-11T13:00:08.328Z,100286.34
2023-06-11T13:05:11.959Z,100277.41
2023-06-11T13:10:16.944Z,100286.34
2023-06-11T13:15:20.423Z,100279.44
2023-06-11T13:20:23.952Z,100276.75
2023-06-11T13:25:28.910Z,100281.78
2023-06-11T13:30:32.306Z,100289.06
2023-06-11T13:35:35.653Z,100276.91
2023-06-11T13:40:40.407Z,100281.81
2023-06-11T13:45:46.167Z,100285.88
2023-06-11T13:50:52.269Z,100276.72
2023-06-11T13:55:57.272Z,100268.44
2023-06-11T14:01:00.694Z,100273.72
2023-06-11T14:06:04.785Z,100271.72
2023-06-11T14:11:14.597Z,100269.78
2023-06-11T14:16:18.267Z,100276.16
2023-06-11T14:21:21.935Z,100271.41
2023-06-11T14:26:27.410Z,100266.16
2023-06-11T14:31:30.842Z,100270.16
2023-06-11T14:36:34.178Z,100282.19
2023-06-11T14:41:39.094Z,100283.97
2023-06-11T14:46:42.517Z,100293.59
2023-06-11T14:51:45.980Z,100292.34
2023-06-11T14:56:50.735Z,100288.09
2023-06-11T15:01:54.147Z,100288.88
2023-06-11T15:06:57.562Z,100294.59
2023-06-11T15:12:04.064Z,100292.59
2023-06-11T15:17:07.408Z,100295.19
2023-06-11T15:22:10.792Z,100297.06
2023-06-11T15:27:18.547Z,100301.53
2023-06-11T15:32:22.169Z,100304.63
2023-06-11T15:37:25.575Z,100306.84
2023-06-11T15:42:30.305Z,100300.69
2023-06-11T15:47:34.260Z,100293.34
2023-06-11T15:52:37.754Z,100298.69
2023-06-11T15:57:42.543Z,100300.16
2023-06-11T16:02:45.967Z,100282.22
2023-06-11T16:07:49.356Z,100282.31
2023-06-11T16:12:54.086Z,100285.66
2023-06-11T16:17:57.452Z,100274.78
2023-06-11T16:33:57.320Z,100275.19
2023-06-11T16:39:21.025Z,100269.47
2023-06-11T16:44:26.636Z,100269.63
2023-06-11T16:49:30.173Z,100272.00
2023-06-11T16:54:33.704Z,100265.94
2023-06-11T16:59:38.421Z,100274.03
2023-06-11T17:04:41.710Z,100271.94
2023-06-11T17:09:45.234Z,100265.22
2023-06-11T17:14:50.844Z,100277.41
2023-06-11T17:19:56.249Z,100274.13
2023-06-11T17:24:59.753Z,100285.00
2023-06-11T17:30:05.008Z,100289.38
2023-06-11T17:35:08.933Z,100283.56
2023-06-11T17:40:16.440Z,100281.00
2023-06-11T17:45:21.775Z,100283.94
2023-06-11T17:55:48.744Z,100283.69
2023-06-11T18:00:55.167Z,100285.00
2023-06-11T18:05:58.678Z,100294.75
2023-06-11T18:11:02.281Z,100296.72
2023-06-11T18:16:07.421Z,100299.75
2023-06-11T18:21:11.488Z,100299.47
2023-06-11T18:26:14.967Z,100309.69
2023-06-11T18:31:19.821Z,100314.66
2023-06-11T18:36:23.127Z,100322.69
2023-06-11T18:41:28.789Z,100322.97
2023-06-11T18:46:37.115Z,100327.69
2023-06-11T18:51:42.930Z,100340.34
2023-06-11T18:56:46.602Z,100349.69
2023-06-11T19:01:51.417Z,100334.56
2023-06-11T19:06:55.437Z,100338.78
2023-06-11T19:11:59.124Z,100332.41
2023-06-11T19:17:04.076Z,100336.34
2023-06-11T19:22:07.818Z,100331.66
2023-06-11T19:27:11.611Z,100332.88
2023-06-11T19:32:16.355Z,100339.88
2023-06-11T19:37:19.733Z,100343.94
2023-06-11T19:42:23.274Z,100349.25
2023-06-11T19:47:27.996Z,100350.25
2023-06-11T19:52:31.537Z,100347.84
2023-06-11T19:57:34.950Z,100356.47
2023-06-11T20:02:39.691Z,100360.41
2023-06-11T20:07:43.010Z,100365.91
2023-06-11T20:12:46.370Z,100362.78
2023-06-11T20:17:51.072Z,100358.59
2023-06-11T20:22:54.569Z,100361.09
2023-06-11T20:27:57.872Z,100366.88
2023-06-11T20:33:02.598Z,100372.16
2023-06-11T20:38:06.156Z,100373.88
2023-06-11T20:43:09.416Z,100369.78
2023-06-11T20:48:14.310Z,100387.22
2023-06-11T20:53:32.526Z,100386.50
2023-06-11T20:58:37.607Z,100392.41
2023-06-11T21:03:42.317Z,100392.97
2023-06-11T21:08:45.955Z,100393.91
2023-06-11T21:14:03.712Z,100410.84
2023-06-11T21:19:13.723Z,100402.00
2023-06-11T21:24:17.198Z,100414.06
2023-06-11T21:29:20.889Z,100418.81
2023-06-11T21:34:25.821Z,100415.63
2023-06-11T21:39:29.122Z,100423.31
2023-06-11T21:44:32.387Z,100423.56
2023-06-11T21:49:37.293Z,100421.75
2023-06-11T22:00:06.017Z,100436.66
2023-06-11T22:05:13.623Z,100432.19
2023-06-11T22:10:17.210Z,100421.84
2023-06-11T22:15:20.624Z,100415.63
2023-06-11T22:20:26.715Z,100414.91
2023-06-11T22:25:30.072Z,100418.88
2023-06-11T22:30:44.023Z,100425.88
2023-06-11T22:35:57.470Z,100417.56
2023-06-11T22:41:00.781Z,100424.88
2023-06-11T22:46:04.145Z,100432.66
2023-06-11T22:51:11.167Z,100433.41
2023-06-11T22:56:14.846Z,100416.69
2023-06-11T23:01:18.888Z,100418.50
2023-06-11T23:06:23.602Z,100420.34
2023-06-11T23:11:28.118Z,100416.94
2023-06-11T23:16:32.175Z,100419.75
2023-06-11T23:21:38.570Z,100421.34
2023-06-11T23:26:45.361Z,100415.06
2023-06-11T23:31:49.793Z,100425.19
2023-06-11T23:36:54.521Z,100422.41
2023-06-11T23:41:57.809Z,100414.25
2023-06-11T23:47:01.378Z,100418.41
2023-06-11T23:52:07.430Z,100409.97
2023-06-11T23:57:11.808Z,100389.38
